Time;durP1;ratioP1;P1;durP2;ratioP2;P2;SDS_P1;SDS_P2;PMS_P1;PMS_P2;Temp;Humidity;BMP_temperature;BMP_pressure;BME280_temperature;BME280_humidity;BME280_pressure;Samples;Min_cycle;Max_cycle;Signal;HPM_P1;HPM_P2
2024/01/15 04:01:09;;;;;;;12.45;9.98;;;21.10;22.90;;;;;;5648776;22;45573;-82
2024/01/15 04:03:35;;;;;;;12.80;9.93;;;21.10;22.80;;;;;;4991534;28;45157;-82
2024/01/15 04:06:01;;;;;;;12.27;9.43;;;21.20;22.90;;;;;;4991792;28;45383;-83
2024/01/15 04:08:28;;;;;;;12.25;9.90;;;21.20;22.80;;;;;;5043680;28;45473;-82
2024/01/15 04:10:54;;;;;;;11.70;9.32;;;21.20;22.80;;;;;;5025337;28;45968;-81
2024/01/15 04:13:21;;;;;;;12.35;9.68;;;21.20;22.90;;;;;;5010302;28;45463;-81
2024/01/15 04:15:47;;;;;;;11.40;9.15;;;21.20;22.80;;;;;;5003710;28;45736;-82
2024/01/15 04:18:12;;;;;;;11.52;8.70;;;21.20;22.70;;;;;;4983759;28;45413;-81
2024/01/15 04:20:38;;;;;;;11.87;9.33;;;21.30;22.80;;;;;;4999029;28;47186;-81
2024/01/15 04:23:05;;;;;;;11.02;8.85;;;21.30;22.70;;;;;;5004089;28;45494;-81
2024/01/15 04:25:31;;;;;;;11.70;9.13;;;21.30;22.70;;;;;;4985427;28;45438;-82
2024/01/15 04:27:56;;;;;;;10.32;8.50;;;21.30;22.70;;;;;;5000001;28;45971;-82
2024/01/15 04:30:22;;;;;;;11.17;8.97;;;21.40;22.70;;;;;;5010252;28;46078;-82
2024/01/15 04:32:48;;;;;;;10.33;8.30;;;21.40;22.70;;;;;;5000063;28;45331;-82
2024/01/15 04:35:14;;;;;;;11.50;9.00;;;21.40;22.60;;;;;;4978786;28;46488;-81
2024/01/15 04:37:40;;;;;;;10.80;8.60;;;21.40;22.60;;;;;;5010062;28;45737;-82
2024/01/15 04:40:07;;;;;;;11.07;8.65;;;21.40;22.60;;;;;;4993500;28;46332;-82
2024/01/15 04:42:32;;;;;;;10.13;8.30;;;21.40;22.60;;;;;;4965882;28;44807;-82
2024/01/15 04:44:59;;;;;;;10.40;8.07;;;21.40;22.60;;;;;;4985929;28;44984;-82
2024/01/15 04:47:25;;;;;;;9.98;7.80;;;21.40;22.60;;;;;;4975113;28;45485;-82
2024/01/15 04:49:51;;;;;;;10.45;8.20;;;21.50;22.60;;;;;;5004874;28;45594;-81
2024/01/15 04:52:17;;;;;;;9.95;8.32;;;21.50;22.60;;;;;;4993045;28;45841;-82
2024/01/15 04:54:43;;;;;;;10.20;8.17;;;21.40;22.50;;;;;;4980403;28;45606;-82
2024/01/15 04:57:08;;;;;;;9.60;7.83;;;21.50;22.60;;;;;;4977332;28;45992;-82
2024/01/15 04:59:34;;;;;;;10.32;8.25;;;21.50;22.60;;;;;;4997982;28;46190;-82
2024/01/15 05:02:00;;;;;;;10.80;8.57;;;21.50;22.60;;;;;;4985172;28;45226;-83
2024/01/15 05:04:26;;;;;;;11.57;8.57;;;21.50;22.60;;;;;;4970150;28;46610;-82
2024/01/15 05:06:51;;;;;;;10.50;8.00;;;21.50;22.60;;;;;;4978793;28;45300;-82
2024/01/15 05:09:18;;;;;;;10.60;8.33;;;21.50;22.50;;;;;;5033055;28;47744;-82
2024/01/15 05:11:44;;;;;;;9.85;8.13;;;21.50;22.60;;;;;;5012293;28;45561;-81
2024/01/15 05:14:10;;;;;;;9.77;7.68;;;21.50;22.60;;;;;;4988405;28;46610;-82
2024/01/15 05:16:38;;;;;;;9.85;7.93;;;21.50;22.50;;;;;;4996849;28;45378;-82
2024/01/15 05:19:04;;;;;;;11.15;8.85;;;21.50;22.50;;;;;;5002499;28;45253;-82
2024/01/15 05:21:30;;;;;;;10.57;8.10;;;21.50;22.50;;;;;;4993051;28;45682;-82
2024/01/15 05:23:55;;;;;;;10.35;8.32;;;21.50;23.00;;;;;;4996768;28;45652;-82
2024/01/15 05:26:21;;;;;;;11.70;9.35;;;21.50;23.00;;;;;;4967641;28;45222;-83
2024/01/15 05:28:47;;;;;;;10.50;8.60;;;21.50;22.50;;;;;;5002712;28;46571;-82
2024/01/15 05:31:12;;;;;;;10.90;8.57;;;21.50;22.50;;;;;;4992123;28;45979;-82
2024/01/15 05:33:40;;;;;;;10.77;8.68;;;21.50;22.50;;;;;;5006587;28;45538;-82
2024/01/15 05:36:08;;;;;;;11.68;8.57;;;21.50;22.50;;;;;;5004878;28;59485;-83
2024/01/15 05:38:34;;;;;;;11.93;8.65;;;21.50;22.50;;;;;;4987702;28;46311;-82
2024/01/15 05:41:00;;;;;;;10.75;8.15;;;21.60;22.50;;;;;;5011507;28;45949;-81
2024/01/15 05:43:25;;;;;;;11.10;8.48;;;21.50;22.50;;;;;;5003671;28;45450;-81
2024/01/15 05:45:51;;;;;;;8.90;7.67;;;21.60;22.50;;;;;;4999080;28;45720;-83
2024/01/15 05:48:17;;;;;;;11.00;8.23;;;21.50;22.40;;;;;;4987139;28;45814;-82
2024/01/15 05:50:43;;;;;;;11.98;8.60;;;21.60;22.50;;;;;;4997453;28;44644;-82
2024/01/15 05:53:09;;;;;;;10.63;8.20;;;21.60;22.50;;;;;;4987137;28;45258;-82
2024/01/15 05:55:37;;;;;;;9.20;7.30;;;21.60;22.90;;;;;;4979779;28;45511;-82
2024/01/15 05:58:03;;;;;;;11.20;8.13;;;21.50;22.40;;;;;;5013668;28;45953;-82
2024/01/15 06:00:29;;;;;;;8.85;7.25;;;21.50;22.40;;;;;;5005159;28;45722;-83
2024/01/15 06:02:55;;;;;;;9.75;7.65;;;21.50;22.40;;;;;;4982950;28;45316;-83
2024/01/15 06:05:21;;;;;;;9.33;7.53;;;21.50;22.40;;;;;;4981850;28;46095;-81
2024/01/15 06:07:47;;;;;;;10.80;8.05;;;21.50;22.40;;;;;;5011397;28;46140;-82
2024/01/15 06:10:13;;;;;;;9.03;7.50;;;21.60;22.50;;;;;;4981736;28;45826;-82
2024/01/15 06:12:39;;;;;;;10.45;7.95;;;21.50;22.50;;;;;;4998898;28;45149;-82
2024/01/15 06:15:05;;;;;;;9.97;7.97;;;21.50;22.40;;;;;;5014270;28;45809;-83
2024/01/15 06:17:31;;;;;;;9.45;7.47;;;21.50;22.40;;;;;;4964721;28;47173;-84
2024/01/15 06:19:57;;;;;;;9.73;7.63;;;21.50;22.40;;;;;;5000173;28;44950;-81
2024/01/15 06:22:23;;;;;;;9.32;7.40;;;21.60;22.40;;;;;;5007391;28;44995;-82
2024/01/15 06:24:48;;;;;;;9.07;7.20;;;21.50;22.50;;;;;;4997658;28;45640;-83
2024/01/15 06:27:14;;;;;;;9.02;7.20;;;21.50;22.40;;;;;;5000548;28;46083;-82
2024/01/15 06:29:45;;;;;;;9.65;7.53;;;21.50;22.40;;;;;;4986071;28;45553;-82
2024/01/15 06:32:10;;;;;;;10.25;7.72;;;21.50;22.40;;;;;;4980129;28;45164;-82
2024/01/15 06:34:36;;;;;;;9.07;7.37;;;21.50;22.50;;;;;;4996578;28;45152;-81
2024/01/15 06:37:03;;;;;;;8.98;7.22;;;21.50;22.40;;;;;;4992130;28;45484;-82
2024/01/15 06:39:28;;;;;;;9.57;7.13;;;21.50;22.50;;;;;;4996957;28;45309;-83
2024/01/15 06:41:54;;;;;;;9.57;7.60;;;21.50;22.50;;;;;;4998584;28;45100;-83
2024/01/15 06:44:21;;;;;;;8.18;6.80;;;21.50;22.50;;;;;;4998327;28;45536;-82
2024/01/15 06:46:47;;;;;;;8.93;7.13;;;21.50;22.50;;;;;;4984929;28;46017;-82
2024/01/15 06:49:13;;;;;;;9.02;7.35;;;21.50;22.50;;;;;;5014569;28;45383;-81
2024/01/15 06:51:39;;;;;;;8.88;6.80;;;21.50;22.50;;;;;;5015902;28;45114;-82
2024/01/15 06:54:04;;;;;;;8.67;6.73;;;21.50;22.60;;;;;;4979844;28;45499;-82
2024/01/15 06:56:31;;;;;;;8.20;6.90;;;21.50;22.50;;;;;;5002785;28;45770;-82
2024/01/15 06:58:57;;;;;;;8.30;6.55;;;21.50;22.50;;;;;;4992656;28;45465;-82
2024/01/15 07:01:22;;;;;;;8.77;6.97;;;21.50;22.50;;;;;;4982998;28;45558;-82
2024/01/15 07:03:48;;;;;;;8.07;6.60;;;21.40;22.50;;;;;;5002990;28;45327;-82
2024/01/15 07:06:14;;;;;;;8.98;7.20;;;21.40;22.50;;;;;;4983674;28;45566;-82
2024/01/15 07:08:40;;;;;;;8.73;6.43;;;21.40;22.50;;;;;;5003673;28;45326;-82
2024/01/15 07:11:05;;;;;;;8.17;6.57;;;21.50;22.60;;;;;;4993961;28;45329;-82
2024/01/15 07:13:31;;;;;;;8.40;6.37;;;21.40;22.50;;;;;;5015904;28;45172;-82
2024/01/15 07:15:57;;;;;;;8.67;6.90;;;21.40;22.50;;;;;;5000738;28;45772;-82
2024/01/15 07:18:23;;;;;;;7.90;6.07;;;21.40;22.50;;;;;;4987876;28;45255;-81
2024/01/15 07:20:49;;;;;;;9.20;6.65;;;21.40;22.60;;;;;;4986062;28;45444;-82
2024/01/15 07:23:14;;;;;;;7.77;6.33;;;21.40;22.50;;;;;;4990969;28;45621;-82
2024/01/15 07:25:40;;;;;;;7.78;6.25;;;21.40;22.50;;;;;;5002111;28;46230;-82
2024/01/15 07:28:06;;;;;;;8.18;6.25;;;21.40;22.50;;;;;;4993826;28;44925;-83
2024/01/15 07:30:32;;;;;;;8.37;6.60;;;21.40;22.60;;;;;;4972903;28;45412;-83
2024/01/15 07:32:57;;;;;;;7.80;6.43;;;21.40;22.60;;;;;;4968636;28;44985;-82
2024/01/15 07:35:23;;;;;;;7.43;6.27;;;21.30;22.50;;;;;;4985667;28;46092;-83
2024/01/15 07:37:49;;;;;;;7.70;6.17;;;21.40;22.60;;;;;;4986260;28;45689;-82
2024/01/15 07:40:14;;;;;;;7.40;5.93;;;21.40;22.60;;;;;;5006813;28;45196;-83
2024/01/15 07:42:42;;;;;;;7.07;6.10;;;21.30;22.60;;;;;;4975628;28;45735;-83
2024/01/15 07:45:08;;;;;;;8.15;6.35;;;21.40;22.60;;;;;;4978548;28;46054;-83
2024/01/15 07:47:34;;;;;;;7.18;6.40;;;21.30;22.60;;;;;;4974710;28;45448;-83
2024/01/15 07:49:59;;;;;;;6.90;6.20;;;21.40;22.90;;;;;;4996072;28;45226;-82
2024/01/15 07:52:25;;;;;;;8.00;6.47;;;21.40;22.60;;;;;;5015104;28;45044;-82
2024/01/15 07:54:51;;;;;;;6.75;5.82;;;21.40;22.60;;;;;;5012371;28;45430;-83
2024/01/15 07:57:17;;;;;;;7.25;5.82;;;21.30;22.60;;;;;;5002448;28;45437;-82
2024/01/15 07:59:42;;;;;;;8.50;6.38;;;21.30;22.60;;;;;;4993137;28;45733;-82
2024/01/15 08:02:08;;;;;;;8.00;5.90;;;21.30;22.60;;;;;;4982418;28;44982;-83
2024/01/15 08:04:38;;;;;;;7.57;6.18;;;21.30;22.60;;;;;;4999578;28;47060;-82
2024/01/15 08:07:05;;;;;;;7.40;6.18;;;21.30;22.60;;;;;;4995842;28;45308;-82
2024/01/15 08:09:31;;;;;;;8.15;6.28;;;21.30;22.60;;;;;;5020847;28;45595;-82
2024/01/15 08:11:57;;;;;;;7.88;6.32;;;21.30;22.60;;;;;;5001090;28;45560;-83
2024/01/15 08:14:23;;;;;;;8.17;6.57;;;21.30;22.60;;;;;;5004668;28;46444;-82
2024/01/15 08:16:49;;;;;;;7.18;5.95;;;21.30;22.60;;;;;;4998003;28;45283;-83
2024/01/15 08:19:15;;;;;;;7.97;5.90;;;21.30;22.60;;;;;;5020140;28;45424;-83
2024/01/15 08:21:41;;;;;;;7.57;5.97;;;21.30;22.60;;;;;;5007055;28;45470;-82
2024/01/15 08:24:07;;;;;;;7.03;5.93;;;21.30;22.70;;;;;;4969257;28;46265;-82
2024/01/15 08:26:33;;;;;;;6.95;5.57;;;21.30;22.70;;;;;;4976342;28;45306;-82
2024/01/15 08:28:59;;;;;;;7.00;5.80;;;21.30;22.70;;;;;;5010130;28;45498;-82
2024/01/15 08:31:24;;;;;;;7.57;5.78;;;21.20;22.70;;;;;;4981513;28;45271;-83
2024/01/15 08:33:50;;;;;;;8.00;6.18;;;21.30;22.70;;;;;;4996546;28;45985;-82
2024/01/15 08:36:16;;;;;;;6.45;5.68;;;21.20;22.70;;;;;;5013904;28;45256;-82
2024/01/15 08:38:42;;;;;;;6.97;5.80;;;21.20;22.70;;;;;;4989114;28;45291;-82
2024/01/15 08:41:09;;;;;;;6.90;5.47;;;21.30;22.70;;;;;;4976625;28;45100;-83
2024/01/15 08:43:35;;;;;;;8.20;6.28;;;21.20;22.70;;;;;;5005623;28;45319;-82
2024/01/15 08:46:01;;;;;;;6.82;6.10;;;21.20;22.70;;;;;;4995325;28;45860;-82
2024/01/15 08:48:27;;;;;;;6.82;5.72;;;21.20;22.70;;;;;;4992938;28;45419;-82
2024/01/15 08:50:54;;;;;;;7.13;5.63;;;21.30;22.70;;;;;;5001061;28;45581;-82
2024/01/15 08:53:20;;;;;;;6.65;5.65;;;21.20;22.70;;;;;;5019336;28;45726;-82
2024/01/15 08:55:47;;;;;;;6.93;5.67;;;21.20;22.70;;;;;;4993297;28;45011;-82
2024/01/15 08:58:13;;;;;;;7.47;6.00;;;21.20;22.70;;;;;;5021805;28;45477;-82
2024/01/15 09:00:39;;;;;;;6.88;5.47;;;21.20;22.70;;;;;;5009081;28;45181;-83
2024/01/15 09:03:06;;;;;;;7.35;5.72;;;21.20;22.80;;;;;;4989161;28;47581;-83
2024/01/15 09:05:32;;;;;;;6.15;5.55;;;21.20;22.70;;;;;;5015373;28;45851;-83
2024/01/15 09:07:58;;;;;;;7.73;6.00;;;21.20;22.70;;;;;;5005570;28;45456;-83
2024/01/15 09:10:24;;;;;;;6.80;5.57;;;21.20;22.80;;;;;;4997382;28;45426;-82
2024/01/15 09:12:49;;;;;;;6.30;5.55;;;21.20;22.80;;;;;;4979000;28;46221;-82
2024/01/15 09:15:15;;;;;;;6.40;5.30;;;21.20;22.80;;;;;;4979760;28;45939;-84
2024/01/15 09:17:42;;;;;;;7.13;5.72;;;21.10;22.80;;;;;;5005469;28;45526;-82
2024/01/15 09:20:08;;;;;;;6.50;5.45;;;21.10;22.70;;;;;;5010044;28;45248;-81
2024/01/15 09:22:34;;;;;;;7.13;5.90;;;21.10;22.80;;;;;;4971618;28;47020;-82
2024/01/15 09:25:01;;;;;;;6.13;5.23;;;21.10;22.80;;;;;;4989743;28;45369;-82
2024/01/15 09:27:26;;;;;;;6.45;5.43;;;21.20;22.80;;;;;;5010567;28;45397;-82
2024/01/15 09:29:52;;;;;;;6.63;5.50;;;21.10;22.80;;;;;;4992462;28;45620;-82
2024/01/15 09:32:18;;;;;;;6.28;5.30;;;21.10;22.80;;;;;;4983285;28;46300;-83
2024/01/15 09:34:46;;;;;;;5.97;5.38;;;21.10;22.80;;;;;;5000614;28;45033;-82
2024/01/15 09:37:12;;;;;;;7.20;5.80;;;21.10;22.80;;;;;;5016011;28;45577;-82
2024/01/15 09:39:38;;;;;;;6.77;5.50;;;21.10;22.90;;;;;;4993700;28;45488;-82
2024/01/15 09:42:05;;;;;;;7.05;5.68;;;21.00;22.80;;;;;;4986397;28;46091;-82
2024/01/15 09:44:30;;;;;;;6.13;5.00;;;21.00;22.80;;;;;;5011705;28;45300;-82
2024/01/15 09:46:56;;;;;;;6.10;5.47;;;21.00;22.80;;;;;;4989320;28;45485;-82
2024/01/15 09:49:23;;;;;;;6.15;5.43;;;21.00;22.80;;;;;;5013359;28;45206;-82
2024/01/15 09:51:48;;;;;;;5.47;4.72;;;21.10;22.90;;;;;;4981660;28;45426;-82
2024/01/15 09:54:16;;;;;;;5.95;4.95;;;21.00;22.80;;;;;;4996019;28;45140;-83
2024/01/15 09:56:45;;;;;;;6.90;5.33;;;21.00;22.90;;;;;;4974427;28;45363;-82
2024/01/15 09:59:11;;;;;;;6.00;5.03;;;21.00;22.90;;;;;;4978045;28;45054;-83
2024/01/15 10:01:37;;;;;;;6.90;5.50;;;21.00;22.90;;;;;;5005783;28;46159;-82
2024/01/15 10:04:03;;;;;;;6.93;5.38;;;21.00;22.90;;;;;;5011298;28;45798;-82
2024/01/15 10:06:29;;;;;;;5.70;4.93;;;21.00;22.90;;;;;;5002309;28;46385;-81
2024/01/15 10:08:55;;;;;;;5.97;4.93;;;20.90;22.80;;;;;;4996111;28;44744;-82
2024/01/15 10:11:21;;;;;;;6.07;5.13;;;21.00;22.90;;;;;;4991079;28;45382;-82
2024/01/15 10:13:47;;;;;;;6.72;5.25;;;20.90;22.90;;;;;;5013668;28;45462;-83
2024/01/15 10:16:12;;;;;;;6.47;5.15;;;21.00;22.90;;;;;;4984768;28;45210;-83
2024/01/15 10:18:39;;;;;;;5.68;4.70;;;21.00;22.90;;;;;;4990450;28;46149;-83
2024/01/15 10:21:06;;;;;;;5.97;4.70;;;21.00;22.90;;;;;;4972464;28;46255;-82
2024/01/15 10:23:32;;;;;;;6.25;5.03;;;20.90;22.90;;;;;;5001083;28;45496;-82
2024/01/15 10:25:58;;;;;;;5.50;4.82;;;20.90;22.90;;;;;;5004135;28;45430;-82
2024/01/15 10:28:25;;;;;;;5.60;4.97;;;20.90;22.90;;;;;;5019740;28;45407;-83
2024/01/15 10:30:52;;;;;;;5.90;4.95;;;20.90;22.90;;;;;;4967833;28;45285;-83
2024/01/15 10:33:21;;;;;;;5.30;4.60;;;20.90;23.00;;;;;;4995292;28;45462;-83
2024/01/15 10:35:47;;;;;;;5.63;4.63;;;20.90;23.00;;;;;;4976858;28;45456;-82
2024/01/15 10:38:13;;;;;;;5.40;4.60;;;20.90;23.00;;;;;;4992689;28;45448;-83
2024/01/15 10:40:38;;;;;;;5.88;5.13;;;20.90;23.00;;;;;;5001441;28;45957;-82
2024/01/15 10:43:04;;;;;;;5.77;5.17;;;20.90;23.00;;;;;;5037228;28;45498;-83
2024/01/15 10:45:30;;;;;;;6.93;4.70;;;20.90;23.00;;;;;;4993972;28;45310;-83
2024/01/15 10:47:58;;;;;;;5.90;4.95;;;20.90;23.00;;;;;;4997241;28;45570;-83
2024/01/15 10:50:24;;;;;;;5.57;4.88;;;20.90;23.00;;;;;;5001826;28;46505;-82
2024/01/15 10:52:51;;;;;;;5.68;4.80;;;20.80;23.00;;;;;;4998865;28;45214;-83
2024/01/15 10:55:17;;;;;;;6.13;5.10;;;20.80;23.00;;;;;;4989951;28;45821;-83
2024/01/15 10:57:43;;;;;;;5.57;4.68;;;20.80;23.00;;;;;;5006524;28;45500;-83
2024/01/15 11:00:14;;;;;;;5.28;4.07;;;20.80;23.10;;;;;;4999289;28;45513;-82
2024/01/15 11:02:40;;;;;;;5.47;4.68;;;20.80;23.10;;;;;;4996930;28;45531;-82
2024/01/15 11:05:06;;;;;;;5.47;4.47;;;20.80;23.10;;;;;;5019436;28;44869;-82
2024/01/15 11:07:32;;;;;;;4.97;4.43;;;20.80;23.10;;;;;;5021537;28;45131;-82
2024/01/15 11:09:58;;;;;;;5.40;4.70;;;20.80;23.10;;;;;;4995070;28;46106;-82
2024/01/15 11:12:26;;;;;;;6.22;4.70;;;20.80;23.20;;;;;;5003975;28;45263;-83
2024/01/15 11:14:54;;;;;;;5.70;4.43;;;20.80;23.20;;;;;;5013116;28;45419;-82
2024/01/15 11:17:20;;;;;;;5.15;4.35;;;20.80;23.20;;;;;;5014350;28;45397;-82
2024/01/15 11:19:47;;;;;;;5.78;4.55;;;20.80;23.20;;;;;;4989709;28;46026;-84
2024/01/15 11:22:31;;;;;;;5.57;4.82;;;20.80;23.20;;;;;;4992690;28;45324;-82
2024/01/15 11:24:57;;;;;;;6.03;4.72;;;20.70;23.20;;;;;;5002608;28;45724;-82
2024/01/15 11:27:42;;;;;;;5.50;4.68;;;20.70;23.20;;;;;;4989615;28;45311;-82
2024/01/15 11:30:11;;;;;;;5.72;4.65;;;20.70;23.30;;;;;;4990664;28;46233;-83
2024/01/15 11:32:41;;;;;;;5.93;4.85;;;20.70;23.30;;;;;;4989427;28;45700;-83
2024/01/15 11:35:08;;;;;;;5.50;4.28;;;20.70;23.30;;;;;;5006232;28;45595;-83
2024/01/15 11:37:55;;;;;;;5.00;4.50;;;20.70;23.40;;;;;;4988483;28;45324;-83
2024/01/15 11:40:35;;;;;;;5.07;4.53;;;20.70;23.40;;;;;;5014373;28;47339;-82
2024/01/15 11:43:01;;;;;;;5.03;4.25;;;20.70;23.90;;;;;;5007038;28;44881;-82
2024/01/15 11:45:27;;;;;;;4.83;3.90;;;20.70;23.40;;;;;;4992456;28;45594;-83
2024/01/15 11:48:15;;;;;;;5.10;4.30;;;20.60;23.50;;;;;;4993466;28;45602;-83
2024/01/15 11:50:46;;;;;;;6.17;4.83;;;20.60;23.40;;;;;;5002361;28;47315;-82
2024/01/15 11:53:24;;;;;;;4.78;4.22;;;20.60;23.50;;;;;;5020446;28;45376;-82
2024/01/15 11:55:51;;;;;;;5.28;4.55;;;20.60;23.50;;;;;;4996996;28;45570;-83
2024/01/15 11:58:17;;;;;;;4.80;4.30;;;20.60;23.50;;;;;;4989186;28;45757;-82
2024/01/15 12:00:47;;;;;;;4.80;4.25;;;20.60;23.50;;;;;;5015020;28;45380;-83
2024/01/15 12:03:13;;;;;;;4.95;4.32;;;20.60;23.60;;;;;;4994494;28;45167;-82
2024/01/15 12:05:39;;;;;;;5.65;4.32;;;20.60;23.60;;;;;;4984416;28;45313;-83
2024/01/15 12:08:10;;;;;;;5.43;4.40;;;20.60;23.60;;;;;;4996657;28;45487;-83
2024/01/15 12:10:37;;;;;;;4.90;4.10;;;20.50;23.60;;;;;;4989681;28;46182;-83
2024/01/15 12:13:13;;;;;;;6.33;4.30;;;20.50;23.60;;;;;;5014969;28;45557;-82
2024/01/15 12:15:42;;;;;;;5.28;4.07;;;20.50;23.60;;;;;;4987452;28;45466;-82
2024/01/15 12:18:09;;;;;;;4.97;4.00;;;20.50;23.60;;;;;;4997372;28;45363;-82
2024/01/15 12:20:35;;;;;;;4.70;4.18;;;20.50;23.60;;;;;;4977504;28;45289;-82
2024/01/15 12:23:03;;;;;;;5.53;4.30;;;20.50;23.60;;;;;;4991243;28;45522;-82
2024/01/15 12:25:28;;;;;;;5.82;3.92;;;20.50;23.70;;;;;;4994997;28;44862;-82
2024/01/15 12:27:54;;;;;;;5.28;4.10;;;20.50;23.70;;;;;;4999612;28;45557;-82
2024/01/15 12:30:20;;;;;;;4.93;3.90;;;20.50;23.70;;;;;;4977134;28;46639;-83
2024/01/15 12:32:48;;;;;;;4.80;4.17;;;20.50;23.70;;;;;;5008440;28;46215;-82
2024/01/15 12:35:15;;;;;;;7.50;4.15;;;20.50;23.70;;;;;;5007658;28;45004;-83
2024/01/15 12:37:40;;;;;;;5.30;4.35;;;20.50;23.70;;;;;;5011358;28;45028;-83
2024/01/15 12:40:07;;;;;;;5.35;4.20;;;20.50;23.70;;;;;;4995057;28;45552;-83
2024/01/15 12:42:33;;;;;;;5.00;4.28;;;20.50;23.80;;;;;;4996802;28;45295;-82
2024/01/15 12:45:00;;;;;;;5.70;4.40;;;20.50;23.70;;;;;;4981504;28;45251;-82
2024/01/15 12:47:26;;;;;;;5.10;4.20;;;20.50;23.70;;;;;;5002045;28;45310;-81
2024/01/15 12:49:55;;;;;;;5.00;4.20;;;20.40;23.70;;;;;;4995970;28;46488;-83
2024/01/15 12:52:24;;;;;;;4.15;3.75;;;20.50;23.70;;;;;;5002739;28;45132;-82
2024/01/15 12:54:50;;;;;;;4.53;3.90;;;20.40;23.70;;;;;;5009259;28;45272;-82
2024/01/15 12:57:16;;;;;;;4.47;3.80;;;20.40;23.70;;;;;;4990301;28;45285;-82
2024/01/15 12:59:43;;;;;;;5.75;4.10;;;20.40;23.70;;;;;;4989042;28;46040;-82
2024/01/15 13:02:09;;;;;;;4.97;4.00;;;20.40;23.70;;;;;;5005358;28;45376;-83
2024/01/15 13:04:35;;;;;;;4.97;4.15;;;20.40;23.70;;;;;;4986052;28;45055;-82
2024/01/15 13:07:01;;;;;;;5.93;4.00;;;20.40;23.70;;;;;;5002992;28;45949;-82
2024/01/15 13:09:27;;;;;;;5.00;4.10;;;20.40;23.70;;;;;;4987336;28;45921;-82
2024/01/15 13:11:53;;;;;;;3.95;3.55;;;20.40;23.70;;;;;;5031856;28;46226;-81
2024/01/15 13:14:18;;;;;;;4.57;4.07;;;20.40;23.80;;;;;;5016668;28;46488;-83
2024/01/15 13:16:45;;;;;;;4.68;3.58;;;20.40;23.80;;;;;;4997431;28;44787;-82
2024/01/15 13:19:10;;;;;;;4.25;3.70;;;20.40;23.80;;;;;;5020875;28;46608;-82
2024/01/15 13:21:40;;;;;;;4.07;3.60;;;20.40;23.80;;;;;;4986023;28;45711;-83
2024/01/15 13:24:06;;;;;;;3.92;3.53;;;20.40;23.80;;;;;;5012844;28;45515;-82
2024/01/15 13:26:32;;;;;;;3.90;3.50;;;20.40;23.80;;;;;;5005211;28;44832;-83
2024/01/15 13:29:00;;;;;;;4.28;3.45;;;20.40;23.80;;;;;;4972440;28;46182;-83
2024/01/15 13:31:27;;;;;;;4.28;3.53;;;20.30;23.80;;;;;;4999074;28;45319;-82
2024/01/15 13:33:53;;;;;;;4.25;3.50;;;20.30;23.80;;;;;;5007073;28;45385;-83
2024/01/15 13:36:21;;;;;;;4.90;3.50;;;20.30;23.80;;;;;;4980982;28;45715;-86
2024/01/15 13:38:47;;;;;;;4.35;3.60;;;20.30;23.80;;;;;;4999584;28;46176;-83
2024/01/15 13:41:13;;;;;;;3.65;3.28;;;20.30;23.90;;;;;;5002645;28;45607;-83
2024/01/15 13:43:39;;;;;;;4.15;3.67;;;20.30;23.90;;;;;;5026906;28;45434;-83
2024/01/15 13:46:05;;;;;;;4.20;3.30;;;20.30;23.90;;;;;;5001669;28;45375;-83
2024/01/15 13:48:34;;;;;;;3.77;3.10;;;20.30;23.90;;;;;;5008260;28;47256;-83
2024/01/15 13:51:00;;;;;;;4.05;3.60;;;20.30;24.00;;;;;;5004757;28;45432;-83
2024/01/15 13:53:26;;;;;;;4.63;3.70;;;20.30;24.00;;;;;;5006053;28;45353;-84
2024/01/15 13:55:52;;;;;;;4.40;3.65;;;20.30;24.00;;;;;;5006550;28;45315;-82
2024/01/15 13:58:18;;;;;;;3.97;3.57;;;20.20;24.00;;;;;;4999705;28;46438;-83
2024/01/15 14:00:44;;;;;;;4.00;3.47;;;20.20;24.10;;;;;;4977021;28;45448;-84
2024/01/15 14:03:10;;;;;;;4.00;3.60;;;20.20;24.50;;;;;;5018428;28;45089;-82
2024/01/15 14:05:36;;;;;;;3.80;3.27;;;20.20;24.10;;;;;;5001879;28;45708;-84
2024/01/15 14:08:03;;;;;;;3.75;3.35;;;20.20;24.10;;;;;;5007966;28;45550;-83
2024/01/15 14:10:29;;;;;;;4.43;3.50;;;20.20;24.10;;;;;;5005476;28;45266;-83
2024/01/15 14:12:54;;;;;;;4.63;2.90;;;20.20;24.10;;;;;;5007910;28;45150;-83
2024/01/15 14:15:21;;;;;;;3.50;3.20;;;20.20;24.20;;;;;;5003996;28;45611;-83
2024/01/15 14:17:47;;;;;;;3.77;3.10;;;20.20;24.20;;;;;;5023777;28;45355;-83
2024/01/15 14:20:14;;;;;;;4.50;3.70;;;20.20;24.20;;;;;;4989456;28;45226;-85
2024/01/15 14:22:40;;;;;;;3.28;2.97;;;20.20;24.20;;;;;;4995668;28;45095;-83
2024/01/15 14:25:07;;;;;;;3.47;3.13;;;20.20;24.30;;;;;;4991796;28;46953;-83
2024/01/15 14:27:33;;;;;;;3.28;2.97;;;20.20;24.30;;;;;;4999680;28;46099;-83
2024/01/15 14:29:59;;;;;;;3.58;2.90;;;20.20;24.30;;;;;;5009426;28;45359;-83
2024/01/15 14:32:25;;;;;;;3.07;2.77;;;20.20;24.30;;;;;;5006501;28;45231;-83
2024/01/15 14:34:50;;;;;;;3.47;2.80;;;20.30;24.40;;;;;;5008283;28;45249;-83
2024/01/15 14:37:16;;;;;;;3.58;3.05;;;20.20;24.30;;;;;;5007000;28;46409;-84
2024/01/15 14:39:43;;;;;;;3.10;2.70;;;20.30;24.40;;;;;;5012039;28;45567;-83
2024/01/15 14:42:09;;;;;;;3.33;2.92;;;20.30;24.40;;;;;;5004656;28;45023;-83
2024/01/15 14:44:36;;;;;;;2.80;2.55;;;20.30;24.40;;;;;;5033735;28;46428;-82
2024/01/15 14:47:02;;;;;;;3.13;2.80;;;20.30;24.40;;;;;;4986484;28;46325;-85
2024/01/15 14:49:28;;;;;;;3.20;2.65;;;20.30;24.40;;;;;;5012778;28;45068;-84
2024/01/15 14:51:54;;;;;;;3.08;2.78;;;20.30;24.40;;;;;;4997028;28;45583;-84
2024/01/15 14:54:20;;;;;;;3.20;2.80;;;20.30;24.40;;;;;;5010862;28;44947;-84
2024/01/15 14:56:46;;;;;;;2.95;2.53;;;20.30;24.40;;;;;;5010895;28;45201;-82
2024/01/15 14:59:12;;;;;;;3.53;3.00;;;20.40;24.50;;;;;;4987580;28;45365;-83
2024/01/15 15:01:40;;;;;;;2.87;2.60;;;20.30;24.50;;;;;;5000549;28;45450;-83
2024/01/15 15:04:05;;;;;;;3.27;2.67;;;20.40;24.50;;;;;;5037570;28;44948;-84
2024/01/15 15:06:31;;;;;;;2.80;2.30;;;20.40;24.50;;;;;;5005123;28;46529;-82
2024/01/15 15:09:00;;;;;;;2.95;2.47;;;20.40;24.50;;;;;;5018335;28;45305;-83
2024/01/15 15:11:26;;;;;;;2.90;2.60;;;20.40;24.50;;;;;;4992325;28;45416;-84
2024/01/15 15:13:53;;;;;;;3.78;2.85;;;20.40;24.50;;;;;;4999638;28;45787;-84
2024/01/15 15:16:18;;;;;;;2.60;2.40;;;20.40;24.60;;;;;;5003935;28;46722;-82
2024/01/15 15:18:46;;;;;;;2.57;2.30;;;20.50;24.50;;;;;;4993585;28;45542;-84
2024/01/15 15:21:11;;;;;;;2.85;2.40;;;20.50;24.50;;;;;;4992330;28;45595;-82
2024/01/15 15:23:40;;;;;;;3.37;2.50;;;20.50;24.50;;;;;;4994087;28;45428;-82
2024/01/15 15:26:06;;;;;;;3.58;2.80;;;20.50;24.50;;;;;;5006208;28;45928;-84
2024/01/15 15:28:36;;;;;;;3.20;2.58;;;20.60;24.60;;;;;;5018578;28;45330;-83
2024/01/15 15:31:03;;;;;;;2.65;2.40;;;20.50;25.00;;;;;;4995819;28;46261;-82
2024/01/15 15:33:29;;;;;;;4.00;2.85;;;20.60;24.60;;;;;;5004628;28;44795;-83
2024/01/15 15:35:55;;;;;;;3.60;2.83;;;20.60;24.60;;;;;;5003155;28;46236;-83
2024/01/15 15:38:22;;;;;;;3.17;2.57;;;20.60;24.60;;;;;;5023891;28;45240;-84
2024/01/15 15:40:48;;;;;;;3.40;2.63;;;20.60;24.60;;;;;;5003302;28;45279;-83
2024/01/15 15:43:14;;;;;;;2.88;2.55;;;20.70;24.60;;;;;;5011002;28;45360;-82
2024/01/15 15:45:40;;;;;;;3.10;2.67;;;20.70;24.60;;;;;;4988254;28;46372;-83
2024/01/15 15:48:06;;;;;;;3.17;2.88;;;20.70;24.60;;;;;;4990768;28;45951;-83
2024/01/15 15:50:33;;;;;;;3.13;2.80;;;20.70;24.50;;;;;;4989950;28;46308;-82
2024/01/15 15:53:01;;;;;;;3.15;2.60;;;20.70;24.50;;;;;;5003202;28;45140;-84
2024/01/15 15:55:28;;;;;;;3.08;2.72;;;20.80;24.60;;;;;;4994323;28;45804;-82
2024/01/15 15:57:54;;;;;;;4.72;2.85;;;20.80;24.50;;;;;;4993605;28;45394;-84
2024/01/15 16:00:20;;;;;;;3.13;2.67;;;20.80;24.50;;;;;;4980964;28;45679;-82
2024/01/15 16:02:46;;;;;;;3.72;2.90;;;20.80;24.60;;;;;;5005190;28;45197;-82
2024/01/15 16:05:12;;;;;;;3.38;2.83;;;20.80;24.50;;;;;;5005489;28;45508;-82
2024/01/15 16:07:38;;;;;;;3.55;3.05;;;20.80;24.50;;;;;;4994908;28;45333;-84
2024/01/15 16:10:04;;;;;;;3.73;3.00;;;20.90;24.50;;;;;;5000843;28;45579;-83
2024/01/15 16:12:29;;;;;;;4.03;3.38;;;20.90;24.50;;;;;;4977269;28;45813;-83
2024/01/15 16:14:55;;;;;;;3.73;3.00;;;20.90;24.50;;;;;;4994388;28;46995;-82
2024/01/15 16:17:21;;;;;;;3.60;3.20;;;21.00;24.60;;;;;;4981826;28;45522;-82
2024/01/15 16:19:47;;;;;;;3.65;3.00;;;21.00;24.50;;;;;;5010466;28;45422;-82
2024/01/15 16:22:13;;;;;;;3.43;2.93;;;21.00;24.50;;;;;;5014384;28;45563;-81
2024/01/15 16:24:39;;;;;;;3.60;3.10;;;21.00;24.50;;;;;;4988567;28;47634;-84
2024/01/15 16:27:05;;;;;;;3.60;3.10;;;21.00;24.40;;;;;;5031152;28;44698;-83
2024/01/15 16:29:31;;;;;;;3.97;3.30;;;21.00;24.50;;;;;;4979767;28;46294;-84
2024/01/15 16:31:57;;;;;;;3.70;3.17;;;21.00;24.40;;;;;;4996718;28;45626;-84
2024/01/15 16:34:23;;;;;;;3.87;3.30;;;21.10;24.50;;;;;;5018568;28;46571;-85
2024/01/15 16:36:48;;;;;;;4.68;3.67;;;21.10;24.40;;;;;;5005378;28;44859;-85
2024/01/15 16:39:14;;;;;;;4.28;3.53;;;21.10;24.40;;;;;;5018651;28;45774;-85
2024/01/15 16:41:40;;;;;;;3.90;3.50;;;21.20;24.40;;;;;;4973583;28;45370;-84